Time;durP1;ratioP1;P1;durP2;ratioP2;P2;SDS_P1;SDS_P2;PMS_P1;PMS_P2;Temp;Humidity;BMP_temperature;BMP_pressure;BME280_temperature;BME280_humidity;BME280_pressure;Samples;Min_cycle;Max_cycle;Signal;HPM_P1;HPM_P2
2021/05/11 00:00:38;;;;;;;1.80;0.90;;;20.00;48.60;;;;;;1487780;39;20116;-59
2021/05/11 00:01:59;;;;;;;1.98;0.80;;;20.00;48.70;;;;;;1489938;39;20510;-61
2021/05/11 00:03:20;;;;;;;1.90;1.17;;;20.00;48.80;;;;;;1487714;39;20039;-60
2021/05/11 00:04:41;;;;;;;1.33;1.08;;;20.00;48.90;;;;;;1491276;39;20056;-60
2021/05/11 00:06:02;;;;;;;1.05;0.90;;;20.00;48.90;;;;;;1489903;39;20054;-61
2021/05/11 00:07:23;;;;;;;2.10;1.30;;;20.00;48.90;;;;;;1488713;39;20032;-60
2021/05/11 00:08:44;;;;;;;1.67;1.00;;;20.00;49.10;;;;;;1490174;39;20253;-60
2021/05/11 00:10:06;;;;;;;1.45;1.00;;;20.00;49.20;;;;;;1490968;39;20666;-60
2021/05/11 00:11:27;;;;;;;1.67;1.20;;;20.00;49.30;;;;;;1489352;39;20084;-60
2021/05/11 00:12:48;;;;;;;2.38;1.05;;;20.00;49.40;;;;;;1489934;39;20036;-60
2021/05/11 00:14:09;;;;;;;2.38;0.82;;;20.00;49.40;;;;;;1491855;39;20061;-60
2021/05/11 00:15:30;;;;;;;2.50;1.30;;;19.90;49.50;;;;;;1489578;39;20067;-60
2021/05/11 00:16:51;;;;;;;3.40;1.30;;;20.00;49.70;;;;;;1491268;39;21656;-60
2021/05/11 00:18:13;;;;;;;6.28;1.30;;;19.90;49.70;;;;;;1490111;39;20346;-60
2021/05/11 00:19:35;;;;;;;2.35;1.30;;;19.90;49.80;;;;;;1491564;39;20042;-60
2021/05/11 00:20:56;;;;;;;1.92;1.35;;;19.90;49.80;;;;;;1487857;39;20032;-60
2021/05/11 00:22:17;;;;;;;1.83;1.10;;;19.90;49.80;;;;;;1489912;39;20035;-60
2021/05/11 00:23:38;;;;;;;1.65;1.25;;;19.90;49.80;;;;;;1486230;40;20050;-60
2021/05/11 00:24:58;;;;;;;3.25;1.40;;;19.90;49.80;;;;;;1489649;39;20123;-60
2021/05/11 00:26:19;;;;;;;3.00;1.65;;;19.90;50.00;;;;;;1489195;39;20373;-60
2021/05/11 00:27:41;;;;;;;1.23;1.00;;;19.80;50.00;;;;;;1490753;39;20034;-60
2021/05/11 00:29:02;;;;;;;1.90;1.17;;;19.80;50.10;;;;;;1491506;39;20032;-60
2021/05/11 00:30:23;;;;;;;1.80;1.13;;;19.80;50.20;;;;;;1490493;39;20054;-59
2021/05/11 00:31:44;;;;;;;1.08;0.90;;;19.80;50.80;;;;;;1490086;39;20031;-60
2021/05/11 00:33:05;;;;;;;2.10;1.13;;;19.80;50.50;;;;;;1490426;39;20043;-61
2021/05/11 00:34:26;;;;;;;1.17;1.08;;;19.70;50.60;;;;;;1487242;40;20043;-61
2021/05/11 00:35:47;;;;;;;2.10;1.20;;;19.70;50.80;;;;;;1489137;39;20051;-60
2021/05/11 00:37:08;;;;;;;2.20;1.30;;;19.70;51.00;;;;;;1490008;39;20043;-60
2021/05/11 00:38:29;;;;;;;1.70;1.35;;;19.70;51.00;;;;;;1489305;39;20442;-60
2021/05/11 00:39:50;;;;;;;1.73;1.25;;;19.70;51.10;;;;;;1489713;39;20059;-61
2021/05/11 00:41:10;;;;;;;3.97;1.60;;;19.70;51.20;;;;;;1490519;39;20039;-60
2021/05/11 00:42:32;;;;;;;1.15;1.05;;;19.60;51.20;;;;;;1490850;39;20075;-60
2021/05/11 00:43:53;;;;;;;4.22;1.52;;;19.60;51.40;;;;;;1491087;39;20028;-60
2021/05/11 00:45:13;;;;;;;2.72;1.30;;;19.60;51.40;;;;;;1491272;39;20128;-60
2021/05/11 00:46:35;;;;;;;1.58;1.20;;;19.60;51.40;;;;;;1490099;39;20040;-60
2021/05/11 00:47:56;;;;;;;2.60;1.30;;;19.60;51.50;;;;;;1491464;39;20020;-60
2021/05/11 00:49:17;;;;;;;2.33;1.23;;;19.60;51.60;;;;;;1490506;39;20071;-60
2021/05/11 00:50:38;;;;;;;1.58;1.30;;;19.60;51.60;;;;;;1490841;39;20051;-60
2021/05/11 00:52:02;;;;;;;1.10;1.00;;;19.60;51.70;;;;;;1485640;39;20288;-60
2021/05/11 00:53:23;;;;;;;2.05;1.13;;;19.60;51.90;;;;;;1489611;39;20032;-60
2021/05/11 00:54:44;;;;;;;2.15;1.23;;;19.60;51.80;;;;;;1490904;39;20023;-60
2021/05/11 00:56:06;;;;;;;3.92;1.20;;;19.60;51.90;;;;;;1489054;39;20068;-61
2021/05/11 00:57:29;;;;;;;1.90;1.00;;;19.60;52.10;;;;;;1488390;39;20059;-60
2021/05/11 00:58:51;;;;;;;2.50;1.40;;;19.60;52.20;;;;;;1488247;39;20097;-60
2021/05/11 01:00:12;;;;;;;2.20;1.30;;;19.50;52.30;;;;;;1489677;39;20034;-60
2021/05/11 01:01:33;;;;;;;2.47;1.52;;;19.50;52.60;;;;;;1489711;39;20039;-61
2021/05/11 01:02:54;;;;;;;2.60;1.40;;;19.50;52.80;;;;;;1488813;39;20367;-60
2021/05/11 01:04:16;;;;;;;4.50;1.30;;;19.50;52.90;;;;;;1489863;39;20091;-61
2021/05/11 01:05:36;;;;;;;3.22;1.50;;;19.50;53.30;;;;;;1490802;39;20043;-60
2021/05/11 01:06:57;;;;;;;3.35;1.70;;;19.50;53.30;;;;;;1490862;39;20024;-60
2021/05/11 01:08:18;;;;;;;2.92;1.60;;;19.50;53.50;;;;;;1490095;39;20047;-60
2021/05/11 01:09:39;;;;;;;2.53;1.65;;;19.50;53.60;;;;;;1490790;39;20047;-60
2021/05/11 01:11:00;;;;;;;3.05;1.48;;;19.50;53.70;;;;;;1488868;39;20016;-60
2021/05/11 01:12:21;;;;;;;3.08;1.30;;;19.50;53.70;;;;;;1488445;39;20039;-59
2021/05/11 01:13:42;;;;;;;2.83;1.50;;;19.40;53.70;;;;;;1490376;39;20032;-59
2021/05/11 01:15:04;;;;;;;3.95;1.63;;;19.40;53.90;;;;;;1489389;39;20035;-60
2021/05/11 01:16:27;;;;;;;2.28;1.63;;;19.40;54.10;;;;;;1489771;39;20511;-59
2021/05/11 01:17:59;;;;;;;3.95;1.52;;;19.40;54.30;;;;;;1490209;39;20032;-60
2021/05/11 01:19:27;;;;;;;1.92;1.40;;;19.40;54.40;;;;;;1488317;39;20040;-60
2021/05/11 01:20:48;;;;;;;3.83;1.70;;;19.40;54.60;;;;;;1489508;39;20039;-59
2021/05/11 01:23:56;;;;;;;2.53;1.50;;;19.30;54.90;;;;;;1490549;39;20039;-60
2021/05/11 01:25:25;;;;;;;2.45;1.40;;;19.30;55.10;;;;;;1489371;39;20040;-59
2021/05/11 01:28:48;;;;;;;3.42;1.77;;;19.30;55.20;;;;;;1486698;39;20088;-60
2021/05/11 01:45:14;;;;;;;2.22;1.40;;;19.20;55.50;;;;;;1491472;39;20075;-60
2021/05/11 01:50:40;;;;;;;2.10;1.50;;;19.20;56.00;;;;;;1491583;39;20075;-59
2021/05/11 01:55:32;;;;;;;2.20;1.58;;;19.20;56.40;;;;;;1492054;39;19938;-59
2021/05/11 01:58:54;;;;;;;1.73;1.40;;;19.20;55.80;;;;;;1489196;39;20064;-59
2021/05/11 02:23:10;;;;;;;2.10;1.42;;;18.90;57.20;;;;;;1490190;39;20043;-59
2021/05/11 02:24:30;;;;;;;2.42;1.60;;;18.90;56.70;;;;;;1491362;39;20047;-59
2021/05/11 02:25:51;;;;;;;1.55;1.45;;;18.90;56.90;;;;;;1489949;39;20080;-59
2021/05/11 02:27:12;;;;;;;2.78;1.55;;;18.90;57.10;;;;;;1489383;39;20349;-59
2021/05/11 02:28:33;;;;;;;1.40;1.30;;;18.90;57.30;;;;;;1491316;39;20046;-59
2021/05/11 02:29:54;;;;;;;1.75;1.30;;;18.90;57.30;;;;;;1491391;39;20024;-59
2021/05/11 02:31:15;;;;;;;1.55;1.25;;;18.90;57.40;;;;;;1492123;39;20109;-59
2021/05/11 02:32:38;;;;;;;2.90;1.30;;;18.80;57.40;;;;;;1490371;39;20116;-59
2021/05/11 02:33:59;;;;;;;2.55;1.63;;;18.80;57.50;;;;;;1481148;40;20025;-59
2021/05/11 02:35:20;;;;;;;2.63;1.35;;;18.80;57.50;;;;;;1482989;40;20048;-59
2021/05/11 02:36:41;;;;;;;2.60;1.67;;;18.80;57.60;;;;;;1481106;40;20080;-59
2021/05/11 02:38:02;;;;;;;1.50;1.30;;;18.80;57.70;;;;;;1482321;40;20021;-59
2021/05/11 02:39:23;;;;;;;2.33;1.33;;;18.80;57.70;;;;;;1482382;40;20032;-59
2021/05/11 02:40:44;;;;;;;2.80;1.35;;;18.80;57.80;;;;;;1481726;40;20060;-59
2021/05/11 02:42:06;;;;;;;2.35;1.40;;;18.80;57.90;;;;;;1482321;40;20398;-59
2021/05/11 02:43:31;;;;;;;1.33;1.23;;;18.80;57.90;;;;;;1484135;40;20029;-59
2021/05/11 02:44:53;;;;;;;4.10;1.38;;;18.80;58.40;;;;;;1483256;39;20020;-59
2021/05/11 02:46:14;;;;;;;1.90;1.40;;;18.80;57.80;;;;;;1480697;40;20028;-59
2021/05/11 02:47:47;;;;;;;1.80;1.30;;;18.80;57.90;;;;;;1481918;40;20064;-59
2021/05/11 02:49:08;;;;;;;4.00;1.40;;;18.80;58.00;;;;;;1482093;40;20297;-59
2021/05/11 02:50:31;;;;;;;3.90;1.33;;;18.80;57.90;;;;;;1483138;40;20041;-59
2021/05/11 02:51:52;;;;;;;1.40;1.20;;;18.80;58.00;;;;;;1480675;40;20065;-59
2021/05/11 02:53:12;;;;;;;1.50;1.40;;;18.80;58.00;;;;;;1480489;40;20073;-59
2021/05/11 02:54:33;;;;;;;1.70;1.48;;;18.80;58.00;;;;;;1479657;40;20045;-59
2021/05/11 02:55:54;;;;;;;1.45;1.35;;;18.80;58.00;;;;;;1481169;40;20027;-59
2021/05/11 02:57:15;;;;;;;1.50;1.33;;;18.80;58.10;;;;;;1480638;40;20036;-59
2021/05/11 02:58:36;;;;;;;2.53;1.35;;;18.70;58.10;;;;;;1480691;40;20033;-59
2021/05/11 02:59:57;;;;;;;1.63;1.52;;;18.70;58.10;;;;;;1476376;40;20522;-59
2021/05/11 03:01:18;;;;;;;2.03;1.40;;;18.70;58.10;;;;;;1479706;40;20093;-59
2021/05/11 03:02:39;;;;;;;2.13;1.20;;;18.70;58.20;;;;;;1482235;40;20063;-59
2021/05/11 03:04:00;;;;;;;1.40;1.30;;;18.70;58.20;;;;;;1481980;40;20021;-59
2021/05/11 03:05:20;;;;;;;3.70;1.30;;;18.70;58.30;;;;;;1481666;40;20077;-59
2021/05/11 03:06:41;;;;;;;2.00;1.63;;;18.70;58.30;;;;;;1482552;40;20036;-59
2021/05/11 03:08:02;;;;;;;1.60;1.42;;;18.70;58.30;;;;;;1476745;40;20114;-59
2021/05/11 03:09:25;;;;;;;1.58;1.17;;;18.70;58.30;;;;;;1476815;40;20036;-59
2021/05/11 03:10:46;;;;;;;1.48;1.13;;;18.70;58.40;;;;;;1481763;40;20372;-59
2021/05/11 03:12:07;;;;;;;1.48;1.27;;;18.70;58.30;;;;;;1482145;40;20033;-59
2021/05/11 03:13:28;;;;;;;3.22;1.63;;;18.60;58.40;;;;;;1482747;40;20117;-59
2021/05/11 03:14:49;;;;;;;3.45;1.65;;;18.70;58.60;;;;;;1477129;40;20035;-59
2021/05/11 03:16:10;;;;;;;4.03;1.20;;;18.60;58.50;;;;;;1479915;40;20598;-59
2021/05/11 03:17:31;;;;;;;2.65;1.40;;;18.60;58.40;;;;;;1481672;40;20126;-59
2021/05/11 03:18:52;;;;;;;1.98;1.40;;;18.60;58.40;;;;;;1481360;40;20069;-59
2021/05/11 03:20:13;;;;;;;2.47;1.33;;;18.60;58.50;;;;;;1480949;40;20871;-59
2021/05/11 03:21:34;;;;;;;2.88;1.20;;;18.60;58.60;;;;;;1480969;40;20033;-59
2021/05/11 03:22:55;;;;;;;2.28;1.40;;;18.60;58.60;;;;;;1482454;40;20036;-59
2021/05/11 03:24:16;;;;;;;3.88;1.58;;;18.60;58.70;;;;;;1483790;40;20040;-58
2021/05/11 03:25:37;;;;;;;1.65;1.55;;;18.60;58.70;;;;;;1481660;40;20072;-58
2021/05/11 03:26:58;;;;;;;2.20;1.50;;;18.60;58.70;;;;;;1481571;40;20382;-59
2021/05/11 03:28:19;;;;;;;3.97;2.10;;;18.60;58.70;;;;;;1481464;40;20033;-59
2021/05/11 03:29:40;;;;;;;2.42;1.50;;;18.60;58.80;;;;;;1481512;40;20538;-59
2021/05/11 03:31:01;;;;;;;3.15;1.52;;;18.60;58.90;;;;;;1481032;40;20028;-59
2021/05/11 03:32:22;;;;;;;2.88;1.58;;;18.50;59.00;;;;;;1483342;40;20036;-59
2021/05/11 03:33:43;;;;;;;2.65;1.48;;;18.50;59.10;;;;;;1483938;40;20101;-59
2021/05/11 03:35:04;;;;;;;1.80;1.67;;;18.50;59.10;;;;;;1485345;40;20101;-59
2021/05/11 03:36:25;;;;;;;4.07;1.70;;;18.50;59.10;;;;;;1486257;40;20028;-59
2021/05/11 03:37:46;;;;;;;3.63;1.83;;;18.50;59.10;;;;;;1486473;40;20040;-59
2021/05/11 03:39:08;;;;;;;1.85;1.38;;;18.50;59.10;;;;;;1487784;40;20032;-59
2021/05/11 03:40:29;;;;;;;1.50;1.40;;;18.50;59.20;;;;;;1485622;40;20046;-59
2021/05/11 03:41:57;;;;;;;2.65;1.60;;;18.50;59.20;;;;;;1487184;40;20068;-59
2021/05/11 03:43:22;;;;;;;2.63;1.85;;;18.50;59.30;;;;;;1486966;40;20629;-59
2021/05/11 03:44:47;;;;;;;3.05;1.65;;;18.50;59.30;;;;;;1487123;40;20032;-59
2021/05/11 03:46:10;;;;;;;2.15;1.50;;;18.50;59.40;;;;;;1485093;40;20486;-59
2021/05/11 03:47:38;;;;;;;1.60;1.50;;;18.50;59.40;;;;;;1485498;39;20067;-59
2021/05/11 03:48:59;;;;;;;2.03;1.38;;;18.40;59.40;;;;;;1487625;40;20020;-59
2021/05/11 03:50:20;;;;;;;2.22;1.50;;;18.50;59.50;;;;;;1484696;40;20040;-59
2021/05/11 03:51:41;;;;;;;1.90;1.38;;;18.50;59.60;;;;;;1479614;40;20086;-59
2021/05/11 03:53:03;;;;;;;2.45;1.60;;;18.40;59.50;;;;;;1485033;40;20032;-58
2021/05/11 03:54:24;;;;;;;2.80;1.70;;;18.40;59.50;;;;;;1485459;40;20249;-59
2021/05/11 03:55:45;;;;;;;3.45;1.70;;;18.40;59.50;;;;;;1485335;40;20113;-59
2021/05/11 03:57:07;;;;;;;3.33;1.70;;;18.40;59.60;;;;;;1486895;40;20020;-59
2021/05/11 03:58:28;;;;;;;3.83;1.85;;;18.40;59.70;;;;;;1487692;40;20487;-59
2021/05/11 03:59:49;;;;;;;3.25;1.65;;;18.40;59.80;;;;;;1486578;40;20028;-59
2021/05/11 04:01:09;;;;;;;4.00;2.00;;;18.30;59.80;;;;;;1487854;39;20033;-59
2021/05/11 04:02:30;;;;;;;2.50;1.77;;;18.40;60.00;;;;;;1487563;39;20074;-59
2021/05/11 04:03:52;;;;;;;3.10;1.98;;;18.30;60.10;;;;;;1486045;40;20068;-59
2021/05/11 04:05:15;;;;;;;3.60;1.70;;;18.30;60.20;;;;;;1487467;40;20135;-59
2021/05/11 04:06:36;;;;;;;2.55;1.63;;;18.30;60.30;;;;;;1486261;40;20082;-59
2021/05/11 04:07:57;;;;;;;2.83;1.83;;;18.30;60.30;;;;;;1487456;40;20040;-59
2021/05/11 04:10:44;;;;;;;2.97;1.65;;;18.30;60.60;;;;;;1483438;40;20051;-59
2021/05/11 04:16:52;;;;;;;3.22;1.90;;;18.30;60.60;;;;;;1486866;39;20043;-58
2021/05/11 04:18:13;;;;;;;3.58;1.92;;;18.30;60.50;;;;;;1487068;40;20041;-59
2021/05/11 04:19:35;;;;;;;3.55;2.10;;;18.30;60.70;;;;;;1487135;40;20050;-59
2021/05/11 04:20:56;;;;;;;3.42;2.13;;;18.30;60.80;;;;;;1485628;40;20024;-59
2021/05/11 04:22:16;;;;;;;3.88;1.95;;;18.30;60.80;;;;;;1486480;39;20032;-59
2021/05/11 04:23:37;;;;;;;3.88;2.15;;;18.20;60.90;;;;;;1487187;40;20032;-59
2021/05/11 04:24:58;;;;;;;4.47;2.15;;;18.30;61.20;;;;;;1487367;40;20323;-59
2021/05/11 04:26:21;;;;;;;4.38;2.20;;;18.20;61.10;;;;;;1484443;40;20036;-59
2021/05/11 04:27:42;;;;;;;3.17;2.03;;;18.20;61.20;;;;;;1485228;40;20114;-59
2021/05/11 04:29:03;;;;;;;4.85;2.00;;;18.20;61.20;;;;;;1487559;40;20137;-59
2021/05/11 04:30:24;;;;;;;4.07;2.33;;;18.20;61.30;;;;;;1486167;40;20020;-58
2021/05/11 04:31:45;;;;;;;3.83;2.00;;;18.20;61.40;;;;;;1486358;40;20106;-59
2021/05/11 04:33:06;;;;;;;3.35;2.10;;;18.20;61.40;;;;;;1485218;39;20274;-59
2021/05/11 04:34:27;;;;;;;3.63;1.98;;;18.20;61.30;;;;;;1485326;39;20067;-59
2021/05/11 04:35:48;;;;;;;2.42;1.90;;;18.20;61.40;;;;;;1486878;40;20175;-59
2021/05/11 04:37:09;;;;;;;2.58;2.17;;;18.20;61.40;;;;;;1486093;40;20346;-59
2021/05/11 04:38:30;;;;;;;2.10;1.90;;;18.20;61.30;;;;;;1486806;40;20124;-59
2021/05/11 04:39:53;;;;;;;6.40;2.30;;;18.20;61.40;;;;;;1486646;40;20031;-59
2021/05/11 04:41:14;;;;;;;2.25;2.05;;;18.20;61.60;;;;;;1484792;40;20430;-59
2021/05/11 04:42:34;;;;;;;2.58;1.88;;;18.20;61.60;;;;;;1486532;40;20042;-59
2021/05/11 04:43:57;;;;;;;3.45;2.00;;;18.20;61.50;;;;;;1486581;40;20371;-59
2021/05/11 04:45:25;;;;;;;2.00;1.75;;;18.20;61.60;;;;;;1487310;40;20051;-59
2021/05/11 04:46:51;;;;;;;3.30;2.00;;;18.20;61.60;;;;;;1487075;39;20144;-59
2021/05/11 04:48:12;;;;;;;3.40;1.92;;;18.20;61.70;;;;;;1482665;40;20531;-59
2021/05/11 04:49:33;;;;;;;3.67;2.08;;;18.10;61.80;;;;;;1486526;40;20138;-59
2021/05/11 04:50:54;;;;;;;3.53;1.80;;;18.20;62.00;;;;;;1484869;39;20347;-59
2021/05/11 04:52:15;;;;;;;3.05;2.20;;;18.10;61.70;;;;;;1486629;39;20404;-59
2021/05/11 04:53:35;;;;;;;3.03;2.10;;;18.10;61.70;;;;;;1483861;40;20043;-59
2021/05/11 04:54:56;;;;;;;3.20;2.03;;;18.20;61.80;;;;;;1485710;40;20020;-59
2021/05/11 04:56:17;;;;;;;2.08;1.77;;;18.10;61.70;;;;;;1484772;40;20047;-59
2021/05/11 04:57:39;;;;;;;4.07;2.20;;;18.10;61.60;;;;;;1486578;40;20052;-59
2021/05/11 04:59:00;;;;;;;3.65;2.15;;;18.10;61.70;;;;;;1485771;40;20024;-59
2021/05/11 05:00:21;;;;;;;3.97;1.92;;;18.10;61.80;;;;;;1485262;40;20593;-59
2021/05/11 05:01:47;;;;;;;3.28;1.58;;;18.10;61.70;;;;;;1486537;39;20043;-59
2021/05/11 05:03:12;;;;;;;3.17;1.75;;;18.10;61.70;;;;;;1485000;40;20565;-59
2021/05/11 05:04:36;;;;;;;3.35;2.10;;;18.10;61.50;;;;;;1486996;40;20362;-59
2021/05/11 05:05:58;;;;;;;4.50;2.20;;;18.10;61.60;;;;;;1481864;40;20382;-59
2021/05/11 05:07:18;;;;;;;1.70;1.50;;;18.10;61.50;;;;;;1487226;40;20040;-59
2021/05/11 05:08:39;;;;;;;2.45;1.67;;;18.10;61.70;;;;;;1486307;40;20052;-59
2021/05/11 05:10:00;;;;;;;2.83;1.70;;;18.00;61.80;;;;;;1486197;40;20032;-59
2021/05/11 05:11:21;;;;;;;3.28;1.58;;;18.00;61.90;;;;;;1485904;40;20396;-59
2021/05/11 05:12:45;;;;;;;1.60;1.50;;;18.00;61.90;;;;;;1485250;40;20125;-59
2021/05/11 05:14:10;;;;;;;1.95;1.50;;;18.00;62.10;;;;;;1487016;40;20024;-59
2021/05/11 05:15:31;;;;;;;2.70;1.55;;;18.00;62.20;;;;;;1484975;40;20036;-59
2021/05/11 05:16:52;;;;;;;2.47;1.40;;;18.00;62.00;;;;;;1486747;40;20028;-59
2021/05/11 05:18:13;;;;;;;3.20;1.38;;;18.00;62.10;;;;;;1485887;40;20048;-59
2021/05/11 05:19:34;;;;;;;2.72;1.55;;;18.00;62.20;;;;;;1485256;40;20080;-58
2021/05/11 05:20:56;;;;;;;3.90;1.75;;;18.00;62.30;;;;;;1488456;39;20025;-59
2021/05/11 05:22:17;;;;;;;1.50;1.30;;;18.00;62.20;;;;;;1488656;39;20071;-59
2021/05/11 05:23:41;;;;;;;1.65;1.20;;;18.10;62.20;;;;;;1486381;40;20452;-59
2021/05/11 05:25:12;;;;;;;4.43;1.40;;;18.00;62.10;;;;;;1487668;39;20039;-59
2021/05/11 05:26:33;;;;;;;3.17;1.42;;;18.10;62.10;;;;;;1487232;40;20048;-59
2021/05/11 05:29:15;;;;;;;2.13;1.35;;;18.10;62.30;;;;;;1487145;39;20039;-59
2021/05/11 05:30:36;;;;;;;1.88;1.15;;;18.10;62.50;;;;;;1487837;40;20096;-59
2021/05/11 05:31:57;;;;;;;2.75;1.42;;;18.10;62.40;;;;;;1480550;40;20028;-59
2021/05/11 05:33:18;;;;;;;2.67;1.33;;;18.10;62.40;;;;;;1484405;40;20285;-59
2021/05/11 05:34:39;;;;;;;2.00;1.27;;;18.10;62.40;;;;;;1486253;40;20044;-59
2021/05/11 05:36:01;;;;;;;2.85;1.30;;;18.10;62.40;;;;;;1486183;40;20033;-59
2021/05/11 05:37:22;;;;;;;2.47;1.42;;;18.10;62.40;;;;;;1486841;40;20032;-59
2021/05/11 05:38:42;;;;;;;2.05;1.20;;;18.10;62.50;;;;;;1484968;40;20040;-59
2021/05/11 05:40:07;;;;;;;3.00;1.60;;;18.10;62.40;;;;;;1486983;40;20044;-59
2021/05/11 05:41:29;;;;;;;1.50;1.15;;;18.10;62.10;;;;;;1487327;40;20268;-59
2021/05/11 05:42:51;;;;;;;3.50;1.48;;;18.20;62.00;;;;;;1486773;40;20376;-59
2021/05/11 05:44:11;;;;;;;3.25;1.30;;;18.10;61.90;;;;;;1486799;40;20277;-59
2021/05/11 05:45:32;;;;;;;3.67;1.40;;;18.20;62.00;;;;;;1486727;40;20044;-59
2021/05/11 05:46:53;;;;;;;3.88;1.10;;;18.20;62.00;;;;;;1487082;39;20024;-59
2021/05/11 05:48:15;;;;;;;2.30;1.23;;;18.20;61.90;;;;;;1487130;40;20043;-59
2021/05/11 05:49:43;;;;;;;2.47;1.42;;;18.10;61.90;;;;;;1487378;39;20055;-59
2021/05/11 05:51:04;;;;;;;4.18;1.27;;;18.20;62.20;;;;;;1487116;40;20047;-59
2021/05/11 05:52:34;;;;;;;2.75;1.10;;;18.20;62.20;;;;;;1485514;39;20036;-59
2021/05/11 05:53:55;;;;;;;1.63;1.10;;;18.20;62.20;;;;;;1485171;40;20037;-59
2021/05/11 05:55:16;;;;;;;1.95;1.20;;;18.20;62.10;;;;;;1487524;40;20028;-59
2021/05/11 05:56:37;;;;;;;4.60;1.10;;;18.20;62.20;;;;;;1484696;40;20380;-59
2021/05/11 05:57:58;;;;;;;2.83;1.10;;;18.20;62.10;;;;;;1486412;40;20047;-59
2021/05/11 05:59:18;;;;;;;4.45;1.42;;;18.20;62.10;;;;;;1486402;40;20544;-59
2021/05/11 06:00:40;;;;;;;3.38;1.30;;;18.20;62.10;;;;;;1487274;40;20044;-59
2021/05/11 06:02:01;;;;;;;2.92;1.25;;;18.20;62.20;;;;;;1483210;40;20029;-59
2021/05/11 06:04:57;;;;;;;2.45;0.98;;;18.20;62.00;;;;;;1486322;40;20021;-59
2021/05/11 06:06:19;;;;;;;3.00;1.20;;;18.20;62.00;;;;;;1484413;40;20076;-59
2021/05/11 06:07:41;;;;;;;2.33;1.17;;;18.20;62.20;;;;;;1482043;40;20040;-59
2021/05/11 06:09:06;;;;;;;3.70;1.35;;;18.30;62.00;;;;;;1485924;40;20031;-59
2021/05/11 06:10:29;;;;;;;2.97;1.20;;;18.30;61.90;;;;;;1485577;40;20037;-59
2021/05/11 06:11:59;;;;;;;2.53;1.40;;;18.30;62.00;;;;;;1485834;40;20032;-59
2021/05/11 06:13:24;;;;;;;5.45;0.98;;;18.30;62.10;;;;;;1488184;40;20040;-59
2021/05/11 06:17:04;;;;;;;2.10;1.15;;;18.30;62.00;;;;;;1487846;40;20061;-59
2021/05/11 06:18:20;;;;;;;2.78;1.17;;;18.30;61.50;;;;;;1486699;40;20031;-59
2021/05/11 06:19:42;;;;;;;2.10;1.27;;;18.30;61.40;;;;;;1486334;40;20076;-59
2021/05/11 06:21:03;;;;;;;1.77;0.98;;;18.30;61.70;;;;;;1487244;40;20029;-59
2021/05/11 06:22:24;;;;;;;1.42;1.17;;;18.30;61.80;;;;;;1486427;40;20071;-59
2021/05/11 06:23:45;;;;;;;2.67;1.33;;;18.30;61.90;;;;;;1485560;40;20024;-59
2021/05/11 06:25:09;;;;;;;2.05;1.25;;;18.30;62.00;;;;;;1487495;40;20035;-59
2021/05/11 06:26:30;;;;;;;4.45;1.40;;;18.30;62.00;;;;;;1487795;40;20029;-59
2021/05/11 06:27:57;;;;;;;3.63;1.40;;;18.30;61.90;;;;;;1487393;40;20084;-59
2021/05/11 06:29:20;;;;;;;1.15;1.00;;;18.30;62.10;;;;;;1486070;40;20028;-59
2021/05/11 06:30:41;;;;;;;2.70;1.50;;;18.30;61.80;;;;;;1485656;39;20038;-59
2021/05/11 06:32:03;;;;;;;2.88;1.20;;;18.30;61.90;;;;;;1487786;40;20234;-59
2021/05/11 06:33:24;;;;;;;3.10;1.40;;;18.30;62.00;;;;;;1485950;40;20044;-59
2021/05/11 06:34:48;;;;;;;3.40;1.13;;;18.30;62.20;;;;;;1486910;40;20062;-59
2021/05/11 06:36:10;;;;;;;3.33;1.65;;;18.30;62.20;;;;;;1485843;40;20040;-59
2021/05/11 06:37:31;;;;;;;4.97;1.20;;;18.30;62.30;;;;;;1487402;40;20032;-59
2021/05/11 06:38:52;;;;;;;2.63;1.45;;;18.40;62.40;;;;;;1486269;40;20036;-59
2021/05/11 06:40:13;;;;;;;1.75;1.20;;;18.40;62.60;;;;;;1487652;40;20032;-59
2021/05/11 06:41:35;;;;;;;2.33;1.40;;;18.40;63.40;;;;;;1487260;40;20044;-59
2021/05/11 06:42:58;;;;;;;3.45;1.50;;;18.30;62.60;;;;;;1483416;40;20035;-59
2021/05/11 06:44:39;;;;;;;2.42;1.42;;;18.40;62.60;;;;;;1486925;40;20051;-59
2021/05/11 06:50:34;;;;;;;1.65;1.20;;;18.50;62.20;;;;;;1486558;40;20028;-59
2021/05/11 06:53:44;;;;;;;2.67;1.30;;;18.50;62.30;;;;;;1483416;40;20035;-59
2021/05/11 06:55:07;;;;;;;;;;;18.50;62.60;;;;;;1484239;40;20028;-59
2021/05/11 06:56:29;;;;;;;4.20;1.40;;;18.50;62.50;;;;;;1485553;40;19951;-59
2021/05/11 06:57:50;;;;;;;2.70;1.52;;;18.60;62.30;;;;;;1487802;40;20142;-59
2021/05/11 06:59:12;;;;;;;2.42;1.40;;;18.50;62.60;;;;;;1486070;40;20115;-59
2021/05/11 07:00:33;;;;;;;2.63;1.25;;;18.50;63.00;;;;;;1487802;40;20028;-59
2021/05/11 07:01:54;;;;;;;3.67;1.77;;;18.60;63.20;;;;;;1486219;40;20041;-59
2021/05/11 07:03:15;;;;;;;2.72;1.40;;;18.60;63.30;;;;;;1487486;40;20357;-59
2021/05/11 07:04:38;;;;;;;2.72;1.38;;;18.60;63.40;;;;;;1487525;40;20062;-59
2021/05/11 07:06:00;;;;;;;2.50;1.30;;;18.60;63.70;;;;;;1487208;40;20027;-59
2021/05/11 07:07:22;;;;;;;3.60;1.23;;;18.60;63.60;;;;;;1486944;40;20032;-59
2021/05/11 07:08:54;;;;;;;4.45;1.77;;;18.70;63.70;;;;;;1486735;40;20028;-59
2021/05/11 07:10:22;;;;;;;6.18;1.52;;;18.70;63.70;;;;;;1487295;40;20032;-59
2021/05/11 07:13:10;;;;;;;1.70;1.20;;;18.70;63.40;;;;;;1487858;40;20032;-59
2021/05/11 07:14:31;;;;;;;4.13;1.60;;;18.70;63.20;;;;;;1485032;40;20161;-59
2021/05/11 07:15:52;;;;;;;1.73;1.50;;;18.80;63.40;;;;;;1485515;40;20320;-59
2021/05/11 07:17:13;;;;;;;2.15;1.23;;;18.70;63.60;;;;;;1487210;39;20040;-59
2021/05/11 07:18:34;;;;;;;4.07;1.55;;;18.80;63.80;;;;;;1486534;40;20482;-59
2021/05/11 07:19:56;;;;;;;2.70;1.45;;;18.80;63.70;;;;;;1487657;40;20024;-59
2021/05/11 07:21:16;;;;;;;3.45;1.70;;;18.80;63.60;;;;;;1487668;40;20036;-59
2021/05/11 07:22:37;;;;;;;3.53;1.55;;;18.80;63.50;;;;;;1485785;39;20028;-59
2021/05/11 07:24:02;;;;;;;2.67;1.50;;;18.90;63.40;;;;;;1487850;40;20068;-59
2021/05/11 07:25:25;;;;;;;4.70;1.52;;;18.90;63.20;;;;;;1484403;40;20134;-59
2021/05/11 07:27:16;;;;;;;2.92;1.90;;;18.90;63.00;;;;;;1486523;40;20036;-59
2021/05/11 07:30:14;;;;;;;3.20;1.75;;;19.00;63.50;;;;;;1483367;40;20044;-59
2021/05/11 07:31:36;;;;;;;2.58;1.65;;;19.00;63.60;;;;;;1487351;40;20036;-59
2021/05/11 07:32:57;;;;;;;6.03;2.58;;;19.00;63.70;;;;;;1486662;40;20235;-59
2021/05/11 07:34:20;;;;;;;3.65;2.03;;;19.00;63.70;;;;;;1483943;40;20178;-59
2021/05/11 07:35:41;;;;;;;4.15;1.88;;;19.10;63.50;;;;;;1482472;40;20065;-59
2021/05/11 07:37:02;;;;;;;3.67;1.75;;;19.10;63.60;;;;;;1482317;40;20405;-59
2021/05/11 07:38:26;;;;;;;3.28;1.75;;;19.10;63.80;;;;;;1482513;40;20029;-59
2021/05/11 07:39:46;;;;;;;2.72;1.60;;;19.10;63.90;;;;;;1483569;40;20273;-59
2021/05/11 07:41:09;;;;;;;5.07;2.00;;;19.20;64.10;;;;;;1485687;40;20106;-59
2021/05/11 07:42:31;;;;;;;5.43;2.05;;;19.20;63.90;;;;;;1483738;40;20032;-59
2021/05/11 07:43:57;;;;;;;3.33;1.70;;;19.20;63.60;;;;;;1481375;40;20033;-59
2021/05/11 07:45:32;;;;;;;3.90;1.90;;;19.20;63.40;;;;;;1484500;40;20040;-59
2021/05/11 07:47:06;;;;;;;3.13;1.92;;;19.30;63.40;;;;;;1485904;40;20040;-59
2021/05/11 08:06:23;;;;;;;5.00;1.40;;;19.50;61.90;;;;;;1480858;40;20041;-59
2021/05/11 08:15:59;;;;;;;3.83;1.80;;;19.50;61.50;;;;;;1481517;40;20036;-59
2021/05/11 08:17:20;;;;;;;4.75;1.95;;;19.50;61.70;;;;;;1485080;40;20040;-59
2021/05/11 08:19:03;;;;;;;2.60;1.73;;;19.50;61.80;;;;;;1481598;40;20133;-59
2021/05/11 08:22:15;;;;;;;3.13;1.52;;;19.50;61.90;;;;;;1481539;40;20032;-59
2021/05/11 08:28:25;;;;;;;2.95;1.80;;;19.40;61.80;;;;;;1482952;40;20045;-59
2021/05/11 08:29:46;;;;;;;4.47;1.67;;;19.40;61.60;;;;;;1482273;40;20529;-59
2021/05/11 08:31:07;;;;;;;4.38;1.80;;;19.40;61.30;;;;;;1482002;40;20025;-59
2021/05/11 08:32:28;;;;;;;5.10;1.88;;;19.40;61.50;;;;;;1483557;40;20059;-59
2021/05/11 08:33:49;;;;;;;4.15;1.90;;;19.40;61.80;;;;;;1481917;40;20137;-59
2021/05/11 08:35:09;;;;;;;3.72;1.90;;;19.50;61.80;;;;;;1482114;40;20087;-59
2021/05/11 08:36:30;;;;;;;4.18;1.83;;;19.50;62.00;;;;;;1481300;40;20037;-59
2021/05/11 08:37:51;;;;;;;2.67;1.90;;;19.50;62.40;;;;;;1481504;40;20425;-59
2021/05/11 08:39:12;;;;;;;3.25;1.92;;;19.50;62.50;;;;;;1483153;40;20581;-59
2021/05/11 08:40:34;;;;;;;4.68;1.70;;;19.50;62.40;;;;;;1483317;40;20077;-60
2021/05/11 08:41:55;;;;;;;3.00;1.55;;;19.50;62.20;;;;;;1480892;40;20033;-60
2021/05/11 08:43:31;;;;;;;3.00;1.90;;;19.60;62.30;;;;;;1480240;40;20466;-60
2021/05/11 08:44:52;;;;;;;3.75;1.80;;;19.60;62.00;;;;;;1482378;40;20048;-60
2021/05/11 08:46:13;;;;;;;3.78;1.73;;;19.60;61.60;;;;;;1482763;40;20467;-59
2021/05/11 08:47:48;;;;;;;3.00;1.48;;;19.60;61.50;;;;;;1482207;40;20098;-60
2021/05/11 08:49:13;;;;;;;2.65;1.52;;;19.60;61.40;;;;;;1482855;40;20135;-60
2021/05/11 08:50:37;;;;;;;2.42;1.50;;;19.60;61.00;;;;;;1482592;40;20064;-60
2021/05/11 08:52:07;;;;;;;2.30;1.38;;;19.70;60.80;;;;;;1484749;40;20024;-61
2021/05/11 09:06:44;;;;;;;3.20;1.50;;;19.80;60.20;;;;;;1481374;40;20040;-60